createdAt,value
2018-02-25T00:00:52.214Z,14.70
2018-02-25T00:01:52.237Z,17.80
2018-02-25T00:02:52.261Z,14.60
2018-02-25T00:03:52.286Z,21.30
2018-02-25T00:04:52.307Z,15.90
2018-02-25T00:05:52.331Z,19.00
2018-02-25T00:06:52.355Z,14.60
2018-02-25T00:07:52.377Z,14.60
2018-02-25T00:08:52.401Z,15.30
2018-02-25T00:09:52.424Z,16.20
2018-02-25T00:10:52.449Z,13.80
2018-02-25T00:11:52.470Z,18.10
2018-02-25T00:12:52.494Z,14.20
2018-02-25T00:13:52.518Z,16.10
2018-02-25T00:14:52.543Z,15.60
2018-02-25T00:15:52.565Z,17.20
2018-02-25T00:16:52.591Z,14.20
2018-02-25T00:17:52.612Z,14.20
2018-02-25T00:18:52.636Z,15.80
2018-02-25T00:19:52.658Z,13.30
2018-02-25T00:20:52.682Z,17.90
2018-02-25T00:21:52.706Z,19.40
2018-02-25T00:22:52.728Z,13.30
2018-02-25T00:23:52.753Z,15.50
2018-02-25T00:24:52.778Z,15.60
2018-02-25T00:25:52.802Z,14.90
2018-02-25T00:26:52.823Z,15.40
2018-02-25T00:27:52.846Z,17.00
2018-02-25T00:28:52.869Z,17.30
2018-02-25T00:29:52.894Z,14.50
2018-02-25T00:30:52.920Z,15.30
2018-02-25T00:31:52.937Z,14.50
2018-02-25T00:32:52.961Z,14.30
2018-02-25T00:33:52.986Z,17.80
2018-02-25T00:34:53.010Z,14.70
2018-02-25T00:35:53.032Z,15.00
2018-02-25T00:36:53.056Z,17.40
2018-02-25T00:37:53.081Z,13.20
2018-02-25T00:38:53.102Z,19.40
2018-02-25T00:39:53.124Z,17.70
2018-02-25T00:40:53.149Z,16.10
2018-02-25T00:41:53.171Z,16.10
2018-02-25T00:42:53.196Z,16.70
2018-02-25T00:43:53.219Z,15.40
2018-02-25T00:44:53.242Z,14.40
2018-02-25T00:45:53.264Z,15.20
2018-02-25T00:46:53.289Z,17.10
2018-02-25T00:47:53.310Z,17.10
2018-02-25T00:48:53.335Z,18.70
2018-02-25T00:49:53.357Z,14.60
2018-02-25T00:50:53.381Z,13.40
2018-02-25T00:51:53.404Z,13.40
2018-02-25T00:52:53.428Z,14.80
2018-02-25T00:53:53.450Z,18.70
2018-02-25T00:54:53.474Z,13.00
2018-02-25T00:55:53.496Z,13.70
2018-02-25T00:56:53.520Z,14.50
2018-02-25T00:57:53.546Z,15.70
2018-02-25T00:58:53.568Z,16.50
2018-02-25T00:59:53.590Z,12.40
2018-02-25T01:00:53.613Z,14.30
2018-02-25T01:01:53.640Z,16.50
2018-02-25T01:02:53.660Z,15.90
2018-02-25T01:03:53.681Z,16.50
2018-02-25T01:04:53.706Z,18.60
2018-02-25T01:05:53.730Z,16.50
2018-02-25T01:06:53.751Z,14.10
2018-02-25T01:07:53.774Z,16.00
2018-02-25T01:08:53.798Z,16.30
2018-02-25T01:09:53.821Z,16.10
2018-02-25T01:10:53.844Z,15.50
2018-02-25T01:11:53.866Z,16.40
2018-02-25T01:12:53.890Z,17.30
2018-02-25T01:13:53.913Z,16.70
2018-02-25T01:14:53.937Z,16.40
2018-02-25T01:15:53.960Z,15.40
2018-02-25T01:16:53.984Z,13.10
2018-02-25T01:17:54.006Z,13.70
2018-02-25T01:18:54.029Z,14.10
2018-02-25T01:19:54.052Z,13.40
2018-02-25T01:20:54.073Z,13.30
2018-02-25T01:21:54.097Z,12.60
2018-02-25T01:22:54.120Z,13.40
2018-02-25T01:23:54.143Z,14.60
2018-02-25T01:24:54.166Z,15.10
2018-02-25T01:25:54.191Z,15.70
2018-02-25T01:26:54.213Z,12.20
2018-02-25T01:27:54.236Z,14.90
2018-02-25T01:28:54.260Z,13.50
2018-02-25T01:29:54.281Z,15.70
2018-02-25T01:30:54.309Z,15.50
2018-02-25T01:31:54.328Z,11.50
2018-02-25T01:32:54.351Z,12.90
2018-02-25T01:33:54.375Z,15.10
2018-02-25T01:34:54.397Z,15.70
2018-02-25T01:35:54.419Z,13.20
2018-02-25T01:36:54.443Z,17.70
2018-02-25T01:37:54.465Z,11.80
2018-02-25T01:38:54.492Z,12.50
2018-02-25T01:39:54.510Z,13.90
2018-02-25T01:40:54.534Z,13.10
2018-02-25T01:41:54.557Z,15.00
2018-02-25T01:42:54.579Z,16.20
2018-02-25T01:43:54.604Z,13.90
2018-02-25T01:44:54.627Z,14.30
2018-02-25T01:45:54.648Z,13.30
2018-02-25T01:46:54.670Z,13.80
2018-02-25T01:47:54.694Z,12.80
2018-02-25T01:48:54.721Z,13.50
2018-02-25T01:49:54.739Z,14.40
2018-02-25T01:50:54.764Z,14.10
2018-02-25T01:51:54.784Z,12.60
2018-02-25T01:52:54.809Z,11.20
2018-02-25T01:53:54.831Z,12.90
2018-02-25T01:54:54.853Z,13.80
2018-02-25T01:55:54.875Z,13.90
2018-02-25T01:56:54.899Z,13.80
2018-02-25T01:57:54.921Z,13.20
2018-02-25T01:58:54.944Z,14.20
2018-02-25T01:59:54.966Z,10.80
2018-02-25T02:00:54.990Z,12.70
2018-02-25T02:01:55.012Z,12.20
2018-02-25T02:02:55.036Z,12.20
2018-02-25T02:03:55.058Z,15.40
2018-02-25T02:04:55.080Z,11.30
2018-02-25T02:05:55.103Z,16.60
2018-02-25T02:06:55.125Z,12.20
2018-02-25T02:07:55.148Z,10.50
2018-02-25T02:08:55.171Z,14.60
2018-02-25T02:09:55.194Z,12.00
2018-02-25T02:10:55.216Z,11.90
2018-02-25T02:11:55.237Z,15.70
2018-02-25T02:12:55.262Z,15.60
2018-02-25T02:13:55.284Z,13.70
2018-02-25T02:14:55.309Z,12.30
2018-02-25T02:15:55.329Z,13.20
2018-02-25T02:16:55.357Z,11.90
2018-02-25T02:17:55.374Z,13.50
2018-02-25T02:18:55.399Z,13.10
2018-02-25T02:19:55.420Z,11.50
2018-02-25T02:20:55.443Z,14.70
2018-02-25T02:21:55.464Z,14.20
2018-02-25T02:22:55.489Z,12.80
2018-02-25T02:23:55.511Z,13.80
2018-02-25T02:24:55.545Z,16.30
2018-02-25T02:25:55.554Z,12.00
2018-02-25T02:26:55.578Z,15.00
2018-02-25T02:27:55.600Z,14.70
2018-02-25T02:28:55.623Z,15.40
2018-02-25T02:29:55.646Z,11.70
2018-02-25T02:30:55.669Z,13.50
2018-02-25T02:31:55.691Z,13.70
2018-02-25T02:32:55.714Z,12.30
2018-02-25T02:33:55.735Z,12.30
2018-02-25T02:34:55.757Z,13.10
2018-02-25T02:35:55.780Z,10.50
2018-02-25T02:36:55.804Z,12.40
2018-02-25T02:37:55.825Z,15.30
2018-02-25T02:38:55.848Z,12.20
2018-02-25T02:39:55.903Z,14.90
2018-02-25T02:40:55.891Z,10.90
2018-02-25T02:41:55.913Z,13.10
2018-02-25T02:42:55.937Z,13.10
2018-02-25T02:43:55.962Z,11.50
2018-02-25T02:44:55.982Z,13.40
2018-02-25T02:45:56.010Z,10.10
2018-02-25T02:46:56.027Z,9.60
2018-02-25T02:47:56.048Z,14.50
2018-02-25T02:48:56.075Z,12.90
2018-02-25T02:49:56.101Z,10.70
2018-02-25T02:50:56.125Z,11.10
2018-02-25T02:51:56.137Z,11.00
2018-02-25T02:52:56.161Z,12.80
2018-02-25T02:53:56.181Z,11.90
2018-02-25T02:54:56.206Z,12.80
2018-02-25T02:55:56.229Z,11.30
2018-02-25T02:56:56.253Z,10.00
2018-02-25T02:57:56.271Z,10.70
2018-02-25T02:58:56.294Z,9.30
2018-02-25T02:59:56.315Z,9.20
2018-02-25T03:00:56.338Z,9.50
2018-02-25T03:01:56.371Z,10.70
2018-02-25T03:02:56.382Z,10.90
2018-02-25T03:03:56.405Z,12.90
2018-02-25T03:04:56.426Z,10.20
2018-02-25T03:05:56.449Z,8.40
2018-02-25T03:06:56.471Z,13.00
2018-02-25T03:07:56.492Z,10.40
2018-02-25T03:08:56.514Z,11.70
2018-02-25T03:09:56.538Z,12.00
2018-02-25T03:10:56.560Z,9.10
2018-02-25T03:11:56.581Z,10.90
2018-02-25T03:12:56.604Z,11.90
2018-02-25T03:13:56.631Z,11.50
2018-02-25T03:14:56.649Z,13.10
2018-02-25T03:15:56.669Z,10.30
2018-02-25T03:16:56.692Z,11.90
2018-02-25T03:17:56.716Z,12.10
2018-02-25T03:18:56.737Z,9.20
2018-02-25T03:19:56.758Z,11.30
2018-02-25T03:20:56.781Z,12.10
2018-02-25T03:21:56.804Z,11.50
2018-02-25T03:22:56.825Z,9.40
2018-02-25T03:23:56.847Z,9.60
2018-02-25T03:24:56.871Z,10.90
2018-02-25T03:25:56.897Z,12.50
2018-02-25T03:26:56.916Z,14.00
2018-02-25T03:27:56.935Z,10.40
2018-02-25T03:28:56.959Z,10.40
2018-02-25T03:29:56.979Z,11.50
2018-02-25T03:30:57.004Z,11.40
2018-02-25T03:31:57.024Z,10.80
2018-02-25T03:32:57.045Z,8.90
2018-02-25T03:33:57.068Z,10.20
2018-02-25T03:34:57.090Z,8.40
2018-02-25T03:35:57.112Z,9.70
2018-02-25T03:36:57.134Z,9.40
2018-02-25T03:37:57.155Z,10.60
2018-02-25T03:38:57.180Z,9.10
2018-02-25T03:39:57.200Z,8.70
2018-02-25T03:40:57.222Z,8.60
2018-02-25T03:41:57.244Z,10.20
2018-02-25T03:42:57.267Z,10.70
2018-02-25T03:43:57.287Z,12.20
2018-02-25T03:44:57.309Z,8.60
2018-02-25T03:45:57.332Z,10.00
2018-02-25T03:46:57.354Z,9.30
2018-02-25T03:47:57.375Z,11.10
2018-02-25T03:48:57.397Z,13.60
2018-02-25T03:49:57.419Z,9.00
2018-02-25T03:50:57.440Z,8.90
2018-02-25T03:51:57.463Z,8.60
2018-02-25T03:52:57.485Z,10.90
2018-02-25T03:53:57.506Z,11.00
2018-02-25T03:54:57.529Z,9.70
2018-02-25T03:55:57.550Z,10.60
2018-02-25T03:56:57.574Z,10.80
2018-02-25T03:57:57.594Z,11.10
2018-02-25T03:58:57.618Z,10.20
2018-02-25T03:59:57.639Z,10.70
2018-02-25T04:00:57.659Z,11.10
2018-02-25T04:01:57.681Z,10.30
2018-02-25T04:02:57.706Z,9.00
2018-02-25T04:03:57.725Z,15.00
2018-02-25T04:04:57.747Z,8.10
2018-02-25T04:05:57.769Z,10.90
2018-02-25T04:06:57.790Z,9.90
2018-02-25T04:07:57.812Z,9.20
2018-02-25T04:08:57.833Z,9.00
2018-02-25T04:09:57.856Z,11.00
2018-02-25T04:10:57.878Z,11.20
2018-02-25T04:11:57.899Z,10.80
2018-02-25T04:12:57.920Z,12.10
2018-02-25T04:13:57.943Z,10.50
2018-02-25T04:14:57.964Z,10.50
2018-02-25T04:15:57.985Z,12.10
2018-02-25T04:16:58.012Z,9.60
2018-02-25T04:17:58.029Z,11.10
2018-02-25T04:18:58.052Z,11.00
2018-02-25T04:19:58.072Z,8.70
2018-02-25T04:20:58.093Z,10.70
2018-02-25T04:21:58.122Z,8.60
2018-02-25T04:22:58.137Z,10.20
2018-02-25T04:23:58.159Z,11.00
2018-02-25T04:24:58.181Z,11.90
2018-02-25T04:25:58.201Z,11.10
2018-02-25T04:26:58.224Z,11.20
2018-02-25T04:27:58.247Z,10.80
2018-02-25T04:28:58.266Z,9.10
2018-02-25T04:29:58.288Z,11.00
2018-02-25T04:30:58.310Z,10.10
2018-02-25T04:31:58.335Z,9.30
2018-02-25T04:32:58.356Z,12.10
2018-02-25T04:33:58.381Z,10.90
2018-02-25T04:34:58.401Z,10.60
2018-02-25T04:35:58.418Z,9.50
2018-02-25T04:36:58.440Z,9.00
2018-02-25T04:37:58.461Z,11.40
2018-02-25T04:38:58.483Z,14.80
2018-02-25T04:39:58.504Z,11.70
2018-02-25T04:40:58.526Z,11.00
2018-02-25T04:41:58.547Z,11.20
2018-02-25T04:42:58.570Z,9.00
2018-02-25T04:43:58.591Z,8.70
2018-02-25T04:44:58.611Z,11.20
2018-02-25T04:45:58.634Z,10.70
2018-02-25T04:46:58.656Z,10.40
2018-02-25T04:47:58.675Z,9.00
2018-02-25T04:48:58.698Z,9.60
2018-02-25T04:49:58.721Z,8.90
2018-02-25T04:50:58.740Z,12.30
2018-02-25T04:51:58.762Z,10.70
2018-02-25T04:52:58.787Z,8.60
2018-02-25T04:53:58.806Z,11.90
2018-02-25T04:54:58.829Z,9.90
2018-02-25T04:55:58.847Z,12.30
2018-02-25T04:56:58.869Z,11.00
2018-02-25T04:57:58.892Z,11.30
2018-02-25T04:58:58.914Z,11.50
2018-02-25T04:59:58.937Z,14.10
2018-02-25T05:00:58.957Z,11.20
2018-02-25T05:01:58.978Z,9.50
2018-02-25T05:02:58.999Z,12.80
2018-02-25T05:03:59.021Z,8.10
2018-02-25T05:04:59.044Z,11.70
2018-02-25T05:05:59.064Z,10.80
2018-02-25T05:06:59.086Z,11.10
2018-02-25T05:07:59.108Z,9.80
2018-02-25T05:08:59.127Z,9.20
2018-02-25T05:09:59.150Z,16.00
2018-02-25T05:10:59.171Z,11.00
2018-02-25T05:11:59.191Z,9.60
2018-02-25T05:12:59.213Z,10.10
2018-02-25T05:13:59.235Z,8.90
2018-02-25T05:14:59.256Z,9.50
2018-02-25T05:15:59.277Z,11.30
2018-02-25T05:16:59.299Z,8.70
2018-02-25T05:17:59.320Z,9.40
2018-02-25T05:18:59.342Z,11.20
2018-02-25T05:19:59.364Z,9.50
2018-02-25T05:20:59.383Z,11.90
2018-02-25T05:21:59.406Z,10.90
2018-02-25T05:22:59.427Z,13.40
2018-02-25T05:23:59.447Z,11.20
2018-02-25T05:24:59.470Z,10.80
2018-02-25T05:25:59.491Z,9.90
2018-02-25T05:26:59.514Z,10.90
2018-02-25T05:27:59.534Z,11.60
2018-02-25T05:28:59.555Z,11.10
2018-02-25T05:29:59.577Z,10.50
2018-02-25T05:30:59.598Z,9.30
2018-02-25T05:31:59.619Z,8.60
2018-02-25T05:32:59.639Z,10.00
2018-02-25T05:33:59.663Z,9.60
2018-02-25T05:34:59.683Z,11.10
2018-02-25T05:35:59.703Z,10.40
2018-02-25T05:36:59.725Z,11.60
2018-02-25T05:37:59.746Z,11.90
2018-02-25T05:38:59.767Z,10.60
2018-02-25T05:39:59.789Z,11.80
2018-02-25T05:40:59.810Z,10.60
2018-02-25T05:41:59.835Z,11.80
2018-02-25T05:42:59.853Z,14.30
2018-02-25T05:43:59.873Z,10.70
2018-02-25T05:44:59.895Z,9.40
2018-02-25T05:45:59.917Z,10.60
2018-02-25T05:46:59.939Z,11.80
2018-02-25T05:47:59.956Z,12.30
2018-02-25T05:48:59.979Z,10.50
2018-02-25T05:50:00.001Z,11.90
2018-02-25T05:51:00.025Z,12.40
2018-02-25T05:52:00.043Z,13.10
2018-02-25T05:53:00.065Z,12.80
2018-02-25T05:54:00.086Z,13.40
2018-02-25T05:55:00.107Z,13.20
2018-02-25T05:56:00.130Z,13.30
2018-02-25T05:57:00.149Z,12.30
2018-02-25T05:58:00.169Z,9.60
2018-02-25T05:59:00.192Z,10.90
2018-02-25T06:00:00.213Z,12.80
2018-02-25T06:01:00.237Z,12.70
2018-02-25T06:02:00.260Z,11.80
2018-02-25T06:03:00.277Z,12.80
2018-02-25T06:04:00.298Z,11.50
2018-02-25T06:05:00.319Z,11.10
2018-02-25T06:06:00.346Z,11.80
2018-02-25T06:07:00.362Z,12.20
2018-02-25T06:08:00.383Z,9.50
2018-02-25T06:09:00.403Z,11.20
2018-02-25T06:10:00.425Z,11.60
2018-02-25T06:11:00.447Z,11.50
2018-02-25T06:12:00.466Z,11.90
2018-02-25T06:13:00.491Z,11.80
2018-02-25T06:14:00.510Z,13.30
2018-02-25T06:15:00.531Z,11.10
2018-02-25T06:16:00.555Z,10.40
2018-02-25T06:17:00.573Z,11.10
2018-02-25T06:18:00.594Z,17.30
2018-02-25T06:19:00.617Z,13.30
2018-02-25T06:20:00.636Z,14.10
2018-02-25T06:21:00.661Z,9.90
2018-02-25T06:22:00.678Z,9.50
2018-02-25T06:23:00.701Z,13.80
2018-02-25T06:24:00.721Z,11.70
2018-02-25T06:25:00.742Z,13.10
2018-02-25T06:26:00.762Z,12.70
2018-02-25T06:27:00.784Z,12.30
2018-02-25T06:28:00.805Z,12.20
2018-02-25T06:29:00.826Z,13.10
2018-02-25T06:30:00.852Z,12.40
2018-02-25T06:31:00.869Z,9.80
2018-02-25T06:32:00.890Z,11.30
2018-02-25T06:33:00.911Z,15.90
2018-02-25T06:34:00.932Z,14.10
2018-02-25T06:35:00.954Z,10.60
2018-02-25T06:36:00.978Z,13.50
2018-02-25T06:37:01.000Z,13.00
2018-02-25T06:38:01.024Z,11.80
2018-02-25T06:39:01.040Z,12.70
2018-02-25T06:40:01.059Z,9.70
2018-02-25T06:41:01.081Z,14.70
2018-02-25T06:42:01.102Z,11.60
2018-02-25T06:43:01.123Z,12.80
2018-02-25T06:44:01.144Z,12.40
2018-02-25T06:45:01.166Z,11.90
2018-02-25T06:46:01.189Z,14.00
2018-02-25T06:47:01.208Z,14.00
2018-02-25T06:48:01.230Z,11.20
2018-02-25T06:49:01.251Z,12.60
2018-02-25T06:50:01.272Z,11.90
2018-02-25T06:51:01.297Z,12.50
2018-02-25T06:52:01.314Z,12.20
2018-02-25T06:53:01.335Z,14.10
2018-02-25T06:54:01.357Z,13.70
2018-02-25T06:55:01.379Z,17.60
2018-02-25T06:56:01.401Z,11.30
2018-02-25T06:57:01.421Z,10.50
2018-02-25T06:58:01.441Z,10.10
2018-02-25T06:59:01.464Z,12.80
2018-02-25T07:00:01.488Z,12.90
2018-02-25T07:01:01.506Z,14.00
2018-02-25T07:02:01.529Z,12.80
2018-02-25T07:03:01.550Z,14.50
2018-02-25T07:04:01.571Z,15.90
2018-02-25T07:05:01.594Z,10.30
2018-02-25T07:06:01.614Z,15.40
2018-02-25T07:07:01.636Z,11.50
2018-02-25T07:08:01.711Z,10.20
2018-02-25T07:09:01.679Z,11.60
2018-02-25T07:10:01.700Z,13.90
2018-02-25T07:11:01.723Z,15.20
2018-02-25T07:12:01.743Z,12.40
2018-02-25T07:13:01.768Z,13.00
2018-02-25T07:14:01.787Z,11.10
2018-02-25T07:15:01.861Z,14.10
2018-02-25T07:16:01.832Z,15.30
2018-02-25T07:17:01.851Z,10.50
2018-02-25T07:18:01.874Z,17.00
2018-02-25T07:19:01.896Z,11.70
2018-02-25T07:20:01.916Z,12.90
2018-02-25T07:21:01.940Z,12.50
2018-02-25T07:22:01.966Z,13.20
2018-02-25T07:23:01.984Z,14.20
2018-02-25T07:24:02.005Z,14.80
2018-02-25T07:25:02.028Z,13.90
2018-02-25T07:26:02.049Z,14.40
2018-02-25T07:27:02.070Z,14.10
2018-02-25T07:28:02.093Z,14.80
2018-02-25T07:29:02.115Z,13.50
2018-02-25T07:30:02.138Z,16.20
2018-02-25T07:31:02.159Z,15.20
2018-02-25T07:32:02.182Z,16.60
2018-02-25T07:33:02.244Z,12.60
2018-02-25T07:34:02.227Z,12.10
2018-02-25T07:35:02.249Z,14.30
2018-02-25T07:36:02.275Z,13.00
2018-02-25T07:37:02.293Z,15.20
2018-02-25T07:38:02.317Z,11.60
2018-02-25T07:39:02.341Z,16.70
2018-02-25T07:40:02.361Z,13.50
2018-02-25T07:41:02.384Z,11.80
2018-02-25T07:42:02.405Z,13.60
2018-02-25T07:43:02.429Z,13.70
2018-02-25T07:44:02.452Z,15.50
2018-02-25T07:45:02.475Z,18.00
2018-02-25T07:46:02.497Z,21.10
2018-02-25T07:47:02.521Z,13.80
2018-02-25T07:48:02.543Z,13.60
2018-02-25T07:49:02.568Z,16.00
2018-02-25T07:50:02.591Z,15.00
2018-02-25T07:51:02.613Z,18.30
2018-02-25T07:52:02.635Z,16.00
2018-02-25T07:53:02.662Z,14.00
2018-02-25T07:54:02.681Z,16.90
2018-02-25T07:55:02.705Z,15.80
2018-02-25T07:56:02.727Z,15.50
2018-02-25T07:57:02.751Z,15.80
2018-02-25T07:58:02.776Z,14.60
2018-02-25T07:59:02.797Z,15.60
2018-02-25T08:00:02.821Z,16.90
2018-02-25T08:01:02.844Z,14.20
2018-02-25T08:02:02.869Z,15.80
2018-02-25T08:03:02.894Z,13.30
2018-02-25T08:04:02.915Z,18.70
2018-02-25T08:05:02.939Z,15.40
2018-02-25T08:06:02.962Z,14.30
2018-02-25T08:07:02.987Z,18.00
2018-02-25T08:08:03.009Z,14.50
2018-02-25T08:09:03.033Z,17.20
2018-02-25T08:10:03.058Z,14.60
2018-02-25T08:11:03.082Z,12.70
2018-02-25T08:12:03.106Z,19.20
2018-02-25T08:13:03.129Z,17.30
2018-02-25T08:14:03.152Z,16.80
2018-02-25T08:15:03.182Z,14.40
2018-02-25T08:16:03.201Z,18.20
2018-02-25T08:17:03.226Z,17.20
2018-02-25T08:18:03.251Z,13.00
2018-02-25T08:19:03.276Z,19.00
2018-02-25T08:20:03.299Z,17.70
2018-02-25T08:21:03.323Z,18.10
2018-02-25T08:22:03.353Z,16.80
2018-02-25T08:23:03.376Z,23.00
2018-02-25T08:24:03.401Z,14.00
2018-02-25T08:25:03.425Z,17.70
2018-02-25T08:26:03.453Z,16.70
2018-02-25T08:27:03.478Z,18.80
2018-02-25T08:28:03.505Z,19.60
2018-02-25T08:29:03.530Z,16.10
2018-02-25T08:30:03.555Z,17.10
2018-02-25T08:31:03.583Z,16.30
2018-02-25T08:32:03.609Z,19.50
2018-02-25T08:33:03.635Z,17.30
2018-02-25T08:34:03.666Z,21.20
2018-02-25T08:35:03.690Z,17.30
2018-02-25T08:36:03.716Z,19.20
2018-02-25T08:37:03.743Z,16.30
2018-02-25T08:38:03.770Z,17.40
2018-02-25T08:39:03.798Z,16.30
2018-02-25T08:40:03.825Z,15.90
2018-02-25T08:41:03.852Z,15.60
2018-02-25T08:42:03.880Z,14.90
2018-02-25T08:43:03.917Z,15.30
2018-02-25T08:44:03.936Z,18.20
2018-02-25T08:45:03.966Z,18.90
2018-02-25T08:46:03.992Z,18.20
2018-02-25T08:47:04.021Z,18.20
2018-02-25T08:48:04.049Z,15.30
2018-02-25T08:49:04.078Z,19.80
2018-02-25T08:50:04.104Z,15.60
2018-02-25T08:51:04.134Z,16.80
2018-02-25T08:52:04.161Z,15.60
2018-02-25T08:53:04.191Z,16.00
2018-02-25T08:54:04.220Z,18.20
2018-02-25T08:55:04.250Z,16.30
2018-02-25T08:56:04.278Z,18.10
2018-02-25T08:57:04.308Z,14.90
2018-02-25T08:58:04.337Z,17.90
2018-02-25T08:59:04.366Z,15.50
2018-02-25T09:00:04.396Z,17.70
2018-02-25T09:01:04.426Z,20.10
2018-02-25T09:02:04.455Z,18.70
2018-02-25T09:03:04.484Z,15.10
2018-02-25T09:04:04.513Z,15.10
2018-02-25T09:05:04.546Z,15.80
2018-02-25T09:06:04.573Z,16.30
2018-02-25T09:07:04.658Z,16.40
2018-02-25T09:08:04.635Z,14.00
2018-02-25T09:09:04.665Z,20.50
2018-02-25T09:10:04.695Z,15.20
2018-02-25T09:11:04.730Z,14.70
2018-02-25T09:12:04.756Z,14.90
2018-02-25T09:13:04.788Z,19.60
2018-02-25T09:14:04.862Z,16.70
2018-02-25T09:15:04.854Z,17.00
2018-02-25T09:16:04.883Z,19.70
2018-02-25T09:17:04.914Z,16.60
2018-02-25T09:18:04.946Z,15.90
2018-02-25T09:19:04.979Z,14.60
2018-02-25T09:20:05.010Z,14.80
2018-02-25T09:21:05.043Z,13.20
2018-02-25T09:22:05.075Z,12.80
2018-02-25T09:23:05.108Z,17.90
2018-02-25T09:24:05.140Z,15.60
2018-02-25T09:25:05.173Z,17.50
2018-02-25T09:26:05.207Z,15.20
2018-02-25T09:27:05.240Z,13.60
2018-02-25T09:28:05.271Z,13.80
2018-02-25T09:29:05.306Z,19.90
2018-02-25T09:30:05.342Z,13.30
2018-02-25T09:31:05.375Z,12.40
2018-02-25T09:32:05.407Z,15.50
2018-02-25T09:33:05.442Z,14.60
2018-02-25T09:34:05.475Z,12.50
2018-02-25T09:35:05.509Z,11.90
2018-02-25T09:36:05.545Z,12.40
2018-02-25T09:37:05.577Z,13.20
2018-02-25T09:38:05.612Z,16.50
2018-02-25T09:39:05.647Z,15.10
2018-02-25T09:40:05.681Z,14.20
2018-02-25T09:41:05.715Z,13.50
2018-02-25T09:42:05.750Z,16.60
2018-02-25T09:43:05.786Z,14.00
2018-02-25T09:44:05.820Z,14.10
2018-02-25T09:45:05.856Z,15.80
2018-02-25T09:46:05.892Z,16.40
2018-02-25T09:47:05.927Z,12.10
2018-02-25T09:48:05.962Z,13.50
2018-02-25T09:49:05.999Z,15.10
2018-02-25T09:50:06.059Z,15.40
2018-02-25T09:51:06.117Z,18.00
2018-02-25T09:52:06.103Z,14.90
2018-02-25T09:53:06.141Z,15.60
2018-02-25T09:54:06.177Z,16.20
2018-02-25T09:55:06.214Z,13.80
2018-02-25T09:56:06.253Z,14.60
2018-02-25T09:57:06.287Z,16.30
2018-02-25T09:58:06.323Z,15.10
2018-02-25T09:59:06.360Z,14.20
2018-02-25T10:00:06.404Z,15.70
2018-02-25T10:01:06.433Z,13.70
2018-02-25T10:02:06.470Z,13.10
2018-02-25T10:03:06.508Z,13.00
2018-02-25T10:04:06.594Z,13.50
2018-02-25T10:05:06.582Z,12.90
2018-02-25T10:06:06.620Z,18.80
2018-02-25T10:07:06.657Z,12.90
2018-02-25T10:08:06.695Z,13.80
2018-02-25T10:09:06.743Z,10.40
2018-02-25T10:10:06.770Z,12.20
2018-02-25T10:11:06.811Z,16.20
2018-02-25T10:12:06.845Z,14.00
2018-02-25T10:13:06.883Z,12.30
2018-02-25T10:14:06.920Z,14.10
2018-02-25T10:15:06.960Z,14.10
2018-02-25T10:16:06.996Z,11.60
2018-02-25T10:17:07.034Z,12.70
2018-02-25T10:18:07.072Z,10.60
2018-02-25T10:19:07.111Z,16.40
2018-02-25T10:20:07.148Z,14.30
2018-02-25T10:21:07.188Z,11.80
2018-02-25T10:22:07.225Z,11.70
2018-02-25T10:23:07.262Z,11.50
2018-02-25T10:24:07.301Z,12.20
2018-02-25T10:25:07.340Z,10.90
2018-02-25T10:26:07.383Z,11.60
2018-02-25T10:27:07.417Z,12.80
2018-02-25T10:28:07.458Z,12.80
2018-02-25T10:29:07.495Z,11.30
2018-02-25T10:30:07.533Z,12.00
2018-02-25T10:31:07.571Z,14.60
2018-02-25T10:32:07.609Z,13.40
2018-02-25T10:33:07.648Z,12.90
2018-02-25T10:34:07.693Z,12.40
2018-02-25T10:35:07.728Z,11.20
2018-02-25T10:36:07.766Z,11.80
2018-02-25T10:37:07.805Z,10.70
2018-02-25T10:38:07.843Z,15.20
2018-02-25T10:39:07.883Z,11.80
2018-02-25T10:40:07.921Z,10.70
2018-02-25T10:41:07.962Z,9.70
2018-02-25T10:42:08.000Z,10.70
2018-02-25T10:43:08.040Z,10.20
2018-02-25T10:44:08.081Z,12.10
2018-02-25T10:45:08.118Z,10.30
2018-02-25T10:46:08.157Z,10.30
2018-02-25T10:47:08.198Z,9.50
2018-02-25T10:48:08.260Z,10.00
2018-02-25T10:49:08.276Z,10.40
2018-02-25T10:50:08.315Z,10.10
2018-02-25T10:51:08.357Z,10.30
2018-02-25T10:52:08.398Z,8.90
2018-02-25T10:53:08.437Z,9.60
2018-02-25T10:54:08.477Z,9.90
2018-02-25T10:55:08.550Z,10.20
2018-02-25T10:56:08.557Z,9.40
2018-02-25T10:57:08.598Z,9.50
2018-02-25T10:58:08.640Z,11.80
2018-02-25T10:59:08.680Z,12.40
2018-02-25T11:00:08.719Z,11.40
2018-02-25T11:01:08.760Z,10.60
2018-02-25T11:02:08.802Z,9.60
2018-02-25T11:03:08.842Z,10.40
2018-02-25T11:04:08.916Z,10.00
2018-02-25T11:05:08.924Z,11.50
2018-02-25T11:06:08.968Z,9.80
2018-02-25T11:07:09.006Z,9.40
2018-02-25T11:08:09.049Z,9.70
2018-02-25T11:09:09.087Z,9.90
2018-02-25T11:10:09.237Z,8.90
2018-02-25T11:11:09.171Z,11.30
2018-02-25T11:12:09.212Z,11.30
2018-02-25T11:13:09.254Z,10.80
2018-02-25T11:14:09.296Z,9.10
2018-02-25T11:15:09.370Z,9.10
2018-02-25T11:16:09.380Z,10.50
2018-02-25T11:17:09.421Z,8.90
2018-02-25T11:18:09.464Z,8.40
2018-02-25T11:19:09.507Z,7.60
2018-02-25T11:20:09.548Z,8.00
2018-02-25T11:21:09.594Z,7.10
2018-02-25T11:22:09.632Z,8.10
2018-02-25T11:23:09.676Z,7.70
2018-02-25T11:24:09.721Z,7.80
2018-02-25T11:25:09.760Z,8.40
2018-02-25T11:26:09.807Z,7.30
2018-02-25T11:27:09.843Z,8.40
2018-02-25T11:28:09.885Z,7.90
2018-02-25T11:29:09.928Z,8.30
2018-02-25T11:30:09.970Z,8.30
2018-02-25T11:31:10.013Z,8.00
2018-02-25T11:32:10.055Z,7.90
2018-02-25T11:33:10.101Z,8.70
2018-02-25T11:34:10.141Z,8.00
2018-02-25T11:35:10.183Z,7.90
2018-02-25T11:36:10.226Z,12.00
2018-02-25T11:37:10.270Z,7.70
2018-02-25T11:38:10.314Z,8.70
2018-02-25T11:39:10.359Z,8.90
2018-02-25T11:40:10.397Z,8.60
2018-02-25T11:41:10.441Z,7.70
2018-02-25T11:42:10.484Z,7.40
2018-02-25T11:43:10.527Z,7.50
2018-02-25T11:44:10.569Z,7.50
2018-02-25T11:45:10.613Z,6.50
2018-02-25T11:46:10.656Z,7.70
2018-02-25T11:47:10.700Z,8.10
2018-02-25T11:48:10.742Z,7.10
2018-02-25T11:49:10.786Z,6.40
2018-02-25T11:50:10.830Z,7.30
2018-02-25T11:51:10.875Z,6.90
2018-02-25T11:52:10.917Z,7.20
2018-02-25T11:53:10.975Z,8.40
2018-02-25T11:54:11.003Z,9.20
2018-02-25T11:55:11.047Z,10.50
2018-02-25T11:56:11.089Z,7.00
2018-02-25T11:57:11.132Z,6.20
2018-02-25T11:58:11.178Z,7.10
2018-02-25T11:59:11.220Z,7.00
2018-02-25T12:00:11.262Z,10.80
2018-02-25T12:01:11.371Z,7.80
2018-02-25T12:02:11.348Z,7.80
2018-02-25T12:03:11.392Z,8.00
2018-02-25T12:04:11.435Z,7.60
2018-02-25T12:05:11.477Z,7.00
2018-02-25T12:06:11.522Z,7.10
2018-02-25T12:07:11.567Z,5.70
2018-02-25T12:08:11.607Z,5.60
2018-02-25T12:09:11.651Z,7.60
2018-02-25T12:10:11.693Z,8.60
2018-02-25T12:11:11.737Z,7.50
2018-02-25T12:12:11.781Z,6.00
2018-02-25T12:13:11.824Z,5.60
2018-02-25T12:14:11.868Z,5.80
2018-02-25T12:15:11.910Z,7.20
2018-02-25T12:16:11.953Z,6.20
2018-02-25T12:17:12.000Z,6.20
2018-02-25T12:18:12.060Z,5.90
2018-02-25T12:19:12.084Z,6.30
2018-02-25T12:20:12.127Z,6.10
2018-02-25T12:21:12.171Z,6.10
2018-02-25T12:22:12.213Z,5.90
2018-02-25T12:23:12.255Z,6.00
2018-02-25T12:24:12.298Z,5.90
2018-02-25T12:25:12.342Z,6.20
2018-02-25T12:26:12.384Z,5.60
2018-02-25T12:27:12.427Z,5.60
2018-02-25T12:28:12.468Z,6.10
2018-02-25T12:29:12.512Z,5.70
2018-02-25T12:30:12.554Z,5.00
2018-02-25T12:31:12.598Z,6.20
2018-02-25T12:32:12.640Z,5.80
2018-02-25T12:33:12.681Z,5.70
2018-02-25T12:34:12.724Z,7.00
2018-02-25T12:35:12.767Z,5.80
2018-02-25T12:36:12.812Z,5.00
2018-02-25T12:37:12.851Z,5.50
2018-02-25T12:38:12.895Z,6.00
2018-02-25T12:39:12.936Z,6.20
2018-02-25T12:40:12.978Z,5.20
2018-02-25T12:41:13.019Z,5.70
2018-02-25T12:42:13.063Z,5.50
2018-02-25T12:43:13.104Z,5.30
2018-02-25T12:44:13.146Z,5.40
2018-02-25T12:45:13.189Z,5.50
2018-02-25T12:46:13.230Z,5.80
2018-02-25T12:47:13.272Z,5.50
2018-02-25T12:48:13.314Z,6.50
2018-02-25T12:49:13.357Z,5.70
2018-02-25T12:50:13.398Z,6.00
2018-02-25T12:51:13.442Z,5.30
2018-02-25T12:52:13.481Z,6.50
2018-02-25T12:53:13.525Z,7.80
2018-02-25T12:54:13.568Z,6.30
2018-02-25T12:55:13.610Z,5.60
2018-02-25T12:56:13.652Z,5.40
2018-02-25T12:57:13.695Z,7.10
2018-02-25T12:58:13.737Z,5.80
2018-02-25T12:59:13.780Z,5.10